Time;durP1;ratioP1;P1;durP2;ratioP2;P2;SDS_P1;SDS_P2;PMS_P1;PMS_P2;Temp;Humidity;BMP_temperature;BMP_pressure;BME280_temperature;BME280_humidity;BME280_pressure;Samples;Min_cycle;Max_cycle;Signal;HPM_P1;HPM_P2
2022/01/05 00:00:20;;;;;;;5.10;2.90;;;;;;;8.75;75.46;98375.28;4973400;28;20042;-78
2022/01/05 00:02:47;;;;;;;5.20;3.08;;;;;;;8.74;75.49;98360.38;4982452;28;20053;-78
2022/01/05 00:05:14;;;;;;;5.72;2.90;;;;;;;8.74;75.62;98360.38;4980688;28;20053;-79
2022/01/05 00:07:41;;;;;;;5.32;2.83;;;;;;;8.73;75.33;98353.44;4978071;28;20099;-78
2022/01/05 00:10:08;;;;;;;5.28;3.17;;;;;;;8.73;75.58;98348.16;5005630;28;20056;-79
2022/01/05 00:12:34;;;;;;;7.28;3.00;;;;;;;8.72;75.43;98341.19;4976393;28;20129;-82
2022/01/05 00:15:01;;;;;;;6.18;2.78;;;;;;;8.72;75.45;98338.53;4993387;28;20046;-78
2022/01/05 00:17:28;;;;;;;5.97;3.25;;;;;;;8.71;75.52;98339.53;4982791;28;20067;-78
2022/01/05 00:19:55;;;;;;;5.70;3.03;;;;;;;8.71;75.46;98328.13;4968290;28;20387;-78
2022/01/05 00:22:22;;;;;;;5.65;3.38;;;;;;;8.69;75.47;98322.97;4977499;28;20132;-78
2022/01/05 00:24:49;;;;;;;4.93;3.13;;;;;;;8.68;75.63;98318.69;4977975;28;20052;-78
2022/01/05 00:27:17;;;;;;;6.70;3.75;;;;;;;8.69;75.38;98320.34;4978145;28;20053;-78
2022/01/05 00:29:44;;;;;;;6.03;2.88;;;;;;;8.67;75.71;98311.72;4958971;28;20564;-78
2022/01/05 00:32:10;;;;;;;5.22;3.55;;;;;;;8.67;75.55;98320.50;4984320;28;20058;-78
2022/01/05 00:34:37;;;;;;;8.45;3.40;;;;;;;8.67;75.64;98322.31;4960157;28;20141;-78
2022/01/05 00:37:04;;;;;;;4.95;3.08;;;;;;;8.66;75.80;98318.84;4975895;28;20113;-78
2022/01/05 00:39:31;;;;;;;4.93;2.38;;;;;;;8.66;75.80;98323.31;5000892;28;20046;-78
2022/01/05 00:41:59;;;;;;;7.78;3.65;;;;;;;8.63;76.04;98311.22;4973458;28;20049;-81
2022/01/05 00:44:25;;;;;;;6.47;3.22;;;;;;;8.64;75.78;98310.22;4964864;28;20136;-78
2022/01/05 00:46:52;;;;;;;4.90;3.15;;;;;;;8.63;75.83;98308.59;4976857;28;20065;-78
2022/01/05 00:49:19;;;;;;;5.43;3.35;;;;;;;8.63;76.13;98308.59;4974719;28;20490;-78
2022/01/05 00:51:46;;;;;;;6.10;3.97;;;;;;;8.63;76.14;98307.75;4983061;28;20050;-78
2022/01/05 00:54:13;;;;;;;6.43;3.42;;;;;;;8.62;76.11;98304.25;4987924;28;20068;-78
2022/01/05 00:56:39;;;;;;;7.50;3.08;;;;;;;8.63;75.96;98305.13;4982678;28;20053;-78
2022/01/05 00:59:06;;;;;;;6.85;3.50;;;;;;;8.63;75.91;98294.53;4986140;28;20039;-78
2022/01/05 01:01:34;;;;;;;6.25;3.28;;;;;;;8.60;75.86;98300.97;4994330;28;20052;-78
2022/01/05 01:04:01;;;;;;;6.47;3.90;;;;;;;8.61;75.99;98289.38;4996259;28;20054;-81
2022/01/05 01:06:28;;;;;;;5.10;3.90;;;;;;;8.60;76.15;98282.44;4965569;28;20061;-78
2022/01/05 01:08:54;;;;;;;6.90;4.10;;;;;;;8.59;75.87;98280.78;4976063;28;20099;-78
2022/01/05 01:11:22;;;;;;;6.22;3.63;;;;;;;8.59;76.07;98279.97;4996589;28;20670;-78
2022/01/05 01:13:49;;;;;;;4.55;3.40;;;;;;;8.58;76.18;98281.78;4995223;28;20116;-78
2022/01/05 01:16:18;;;;;;;7.72;3.53;;;;;;;8.58;75.83;98283.59;4970509;28;20152;-78
2022/01/05 01:18:46;;;;;;;5.82;3.85;;;;;;;8.57;76.08;98282.75;4954627;28;20564;-78
2022/01/05 01:21:13;;;;;;;8.50;3.50;;;;;;;8.56;76.04;98294.34;4982446;28;20054;-78
2022/01/05 01:23:42;;;;;;;5.57;3.50;;;;;;;8.56;76.07;98304.91;4988676;28;20117;-78
2022/01/05 01:26:09;;;;;;;7.78;3.60;;;;;;;8.57;76.19;98317.16;4971248;28;20050;-78
2022/01/05 01:28:36;;;;;;;4.88;3.03;;;;;;;8.56;76.18;98317.31;4993480;28;20048;-78
2022/01/05 01:31:02;;;;;;;7.30;4.53;;;;;;;8.56;76.28;98325.25;4979597;28;20049;-78
2022/01/05 01:33:30;;;;;;;4.85;2.90;;;;;;;8.55;76.31;98318.28;4974923;28;20050;-81
2022/01/05 01:35:57;;;;;;;4.68;2.83;;;;;;;8.54;76.29;98316.66;4993062;28;20412;-78
2022/01/05 01:38:24;;;;;;;5.35;3.13;;;;;;;8.53;76.03;98323.75;4963881;28;20046;-78
2022/01/05 01:40:50;;;;;;;5.65;2.92;;;;;;;8.52;76.00;98327.38;4985245;28;20497;-78
2022/01/05 01:43:17;;;;;;;4.30;2.72;;;;;;;8.51;76.34;98328.38;4967078;28;20069;-78
2022/01/05 01:45:44;;;;;;;5.32;2.45;;;;;;;8.51;76.17;98324.91;5008197;28;20055;-78
2022/01/05 01:48:11;;;;;;;5.85;2.67;;;;;;;8.50;76.10;98326.75;4979165;28;20171;-82
2022/01/05 01:50:38;;;;;;;6.43;2.72;;;;;;;8.50;76.17;98323.25;5003225;28;20053;-78
2022/01/05 01:53:05;;;;;;;3.95;2.70;;;;;;;8.50;76.66;98326.75;4964843;28;20048;-78
2022/01/05 01:55:34;;;;;;;4.13;2.03;;;;;;;8.49;76.52;98333.00;4989810;28;22443;-79
2022/01/05 01:58:01;;;;;;;5.13;2.15;;;;;;;8.47;76.47;98333.19;4992876;28;20514;-78
2022/01/05 02:00:29;;;;;;;6.80;2.65;;;;;;;8.47;76.28;98329.69;5008964;28;20048;-78
2022/01/05 02:02:56;;;;;;;3.75;2.20;;;;;;;8.46;76.24;98342.09;5002619;28;20149;-78
2022/01/05 02:05:23;;;;;;;4.68;2.13;;;;;;;8.47;76.67;98348.19;5005738;28;20397;-78
2022/01/05 02:07:49;;;;;;;4.43;1.73;;;;;;;8.47;76.53;98350.84;4987845;28;20491;-78
2022/01/05 02:10:17;;;;;;;3.72;1.50;;;;;;;8.47;76.64;98341.09;4984957;28;20078;-78
2022/01/05 02:12:43;;;;;;;0.93;0.85;;;;;;;8.48;76.56;98357.81;4985162;28;20045;-78
2022/01/05 02:15:11;;;;;;;1.67;0.98;;;;;;;8.51;76.28;98360.13;4977856;28;20043;-78
2022/01/05 02:17:52;;;;;;;1.42;1.10;;;;;;;8.43;76.42;98357.44;5006628;28;20053;-78
2022/01/05 02:20:22;;;;;;;1.48;0.90;;;;;;;8.52;76.36;98353.00;4966767;28;20362;-78
2022/01/05 02:22:50;;;;;;;1.48;1.00;;;;;;;8.49;76.46;98356.81;4990749;28;20046;-78
2022/01/05 02:25:17;;;;;;;2.25;1.17;;;;;;;8.48;76.81;98363.91;5004746;28;20132;-79
2022/01/05 02:27:45;;;;;;;2.67;0.93;;;;;;;8.48;76.76;98360.44;4993181;28;20049;-78
2022/01/05 02:30:17;;;;;;;2.38;1.52;;;;;;;8.50;76.59;98377.00;5000571;28;20121;-78
2022/01/05 02:32:44;;;;;;;1.65;1.42;;;;;;;8.47;76.85;98343.75;4987282;28;20813;-78
2022/01/05 02:35:11;;;;;;;3.17;1.40;;;;;;;8.49;76.87;98346.22;5006365;28;20053;-78
2022/01/05 02:37:45;;;;;;;4.80;1.50;;;;;;;8.44;76.77;98349.34;4996888;28;20433;-78
2022/01/05 02:40:16;;;;;;;4.38;1.20;;;;;;;8.46;77.01;98323.56;4983706;28;20594;-78
2022/01/05 02:42:43;;;;;;;2.78;1.40;;;;;;;8.49;77.06;98319.78;4970112;28;20493;-78
2022/01/05 02:45:11;;;;;;;5.10;1.73;;;;;;;8.48;76.80;98324.25;5006362;28;20042;-78
2022/01/05 02:47:38;;;;;;;2.78;1.33;;;;;;;8.47;77.19;98325.25;4985016;28;20124;-78
2022/01/05 02:50:07;;;;;;;11.57;2.55;;;;;;;8.48;77.25;98318.13;5008578;28;20100;-78
2022/01/05 02:52:34;;;;;;;2.30;1.25;;;;;;;8.43;77.24;98323.06;5000597;28;20053;-78
2022/01/05 02:55:02;;;;;;;2.40;1.20;;;;;;;8.46;77.02;98323.56;4981533;28;20049;-78
2022/01/05 02:57:29;;;;;;;1.02;0.93;;;;;;;8.46;77.12;98320.91;4998238;28;20446;-78
2022/01/05 02:59:56;;;;;;;2.10;1.00;;;;;;;8.45;77.28;98332.50;5023552;28;20048;-78
2022/01/05 03:02:23;;;;;;;2.90;1.05;;;;;;;8.47;77.25;98327.88;4990201;28;20053;-78
2022/01/05 03:04:50;;;;;;;1.40;0.93;;;;;;;8.46;77.33;98318.28;4989591;28;20127;-78
2022/01/05 03:07:17;;;;;;;2.30;1.05;;;;;;;8.45;77.28;98324.56;4973032;28;20570;-78
2022/01/05 03:09:44;;;;;;;1.98;1.20;;;;;;;8.46;77.23;98336.78;4988981;28;20049;-78
2022/01/05 03:12:11;;;;;;;3.38;1.60;;;;;;;8.46;77.09;98342.09;5012108;28;20047;-78
2022/01/05 03:14:38;;;;;;;4.30;1.13;;;;;;;8.46;77.29;98346.53;5006361;28;20050;-78
2022/01/05 03:17:04;;;;;;;1.65;1.10;;;;;;;8.47;77.29;98342.91;4995522;28;20129;-78
2022/01/05 03:19:31;;;;;;;3.83;1.23;;;;;;;8.46;77.10;98334.16;4984073;28;20379;-78
2022/01/05 03:21:58;;;;;;;1.30;0.80;;;;;;;8.46;77.08;98333.31;5001212;28;20509;-78
2022/01/05 03:24:25;;;;;;;1.42;1.00;;;;;;;8.45;77.15;98337.78;5001390;28;20041;-78
2022/01/05 03:26:52;;;;;;;2.67;1.60;;;;;;;8.44;77.17;98336.13;5002170;28;20051;-78
2022/01/05 03:29:18;;;;;;;1.88;1.38;;;;;;;8.44;77.39;98341.41;4981684;28;20493;-78
2022/01/05 03:31:45;;;;;;;1.58;1.20;;;;;;;8.44;77.33;98332.66;5002691;28;20121;-79
2022/01/05 03:34:18;;;;;;;2.22;1.20;;;;;;;8.44;77.37;98332.66;5010142;28;20041;-78
2022/01/05 03:36:45;;;;;;;;;;;;;;;8.22;77.71;98334.03;5007256;28;20061;-78
2022/01/05 03:39:12;;;;;;;3.38;1.42;;;;;;;8.38;77.40;98331.44;4985278;28;20386;-78
2022/01/05 03:41:39;;;;;;;2.63;1.40;;;;;;;8.39;77.34;98338.41;4994239;28;20042;-78
2022/01/05 03:44:06;;;;;;;2.50;1.50;;;;;;;8.40;77.20;98332.16;4980138;28;20417;-80
2022/01/05 03:46:32;;;;;;;3.03;1.50;;;;;;;8.41;77.18;98333.78;4977035;28;20035;-78
2022/01/05 03:49:00;;;;;;;3.45;1.40;;;;;;;8.41;77.03;98339.09;5002354;28;20065;-78
2022/01/05 03:51:27;;;;;;;2.97;1.58;;;;;;;8.41;77.29;98335.63;4965972;28;20069;-82
2022/01/05 03:53:53;;;;;;;7.60;1.77;;;;;;;8.41;77.25;98333.78;5004896;28;20461;-78
2022/01/05 03:56:20;;;;;;;4.00;1.60;;;;;;;8.39;77.28;98338.41;4986188;28;20052;-78
2022/01/05 03:58:47;;;;;;;2.85;1.45;;;;;;;8.40;77.29;98323.38;4998761;28;20084;-78
2022/01/05 04:01:15;;;;;;;3.78;1.33;;;;;;;8.40;77.11;98324.22;4978345;28;20133;-78
2022/01/05 04:03:42;;;;;;;3.92;1.50;;;;;;;8.40;77.13;98328.69;4995904;28;20423;-78
2022/01/05 04:06:08;;;;;;;3.35;2.20;;;;;;;8.41;77.36;98338.25;4990119;28;20050;-80
2022/01/05 04:08:35;;;;;;;2.42;1.65;;;;;;;8.41;77.48;98333.78;4966172;28;20457;-78
2022/01/05 04:11:02;;;;;;;3.22;1.58;;;;;;;8.37;77.19;98340.38;4986788;28;20555;-78
2022/01/05 04:13:28;;;;;;;4.95;1.70;;;;;;;8.40;77.01;98344.53;5001916;28;20061;-78
2022/01/05 04:15:55;;;;;;;2.03;1.50;;;;;;;8.39;76.92;98362.22;5002390;28;20050;-78
2022/01/05 04:18:22;;;;;;;3.72;1.55;;;;;;;8.37;77.04;98374.75;5006116;28;20042;-78
2022/01/05 04:20:48;;;;;;;3.15;1.77;;;;;;;8.40;76.76;98389.50;4991158;28;20113;-78
2022/01/05 04:23:15;;;;;;;4.07;2.10;;;;;;;8.36;77.04;98410.09;5004053;28;20048;-78
2022/01/05 04:25:42;;;;;;;1.98;1.02;;;;;;;8.33;75.67;98430.75;4997295;28;20100;-78
2022/01/05 04:28:08;;;;;;;3.05;0.80;;;;;;;8.21;71.55;98477.78;4994492;28;20405;-77
2022/01/05 04:30:35;;;;;;;0.70;0.70;;;;;;;7.99;71.80;98468.53;5002807;28;20156;-79
2022/01/05 04:33:02;;;;;;;0.80;0.77;;;;;;;8.00;70.67;98481.59;4996892;28;20767;-78
2022/01/05 04:35:49;;;;;;;1.52;0.80;;;;;;;7.86;71.37;98491.84;4932851;28;20046;-78
2022/01/05 04:38:16;;;;;;;3.35;0.95;;;;;;;7.87;71.69;98512.03;4993017;28;20042;-78
2022/01/05 04:40:44;;;;;;;2.40;1.17;;;;;;;7.71;71.34;98545.25;5022125;28;20059;-82
2022/01/05 04:43:10;;;;;;;1.33;1.13;;;;;;;7.75;68.80;98546.59;5008716;28;20057;-78
2022/01/05 04:45:37;;;;;;;0.68;0.68;;;;;;;7.66;70.07;98549.28;4987800;28;20057;-78
2022/01/05 04:48:04;;;;;;;0.75;0.75;;;;;;;7.64;70.32;98546.00;4996369;28;20536;-80
2022/01/05 04:50:31;;;;;;;2.05;0.95;;;;;;;7.50;69.76;98574.53;4976869;28;20104;-78
2022/01/05 04:52:58;;;;;;;2.00;1.00;;;;;;;7.42;70.49;98584.19;4974141;28;20050;-78
2022/01/05 04:55:25;;;;;;;0.90;0.90;;;;;;;7.44;70.88;98593.63;5005871;28;20049;-78
2022/01/05 04:57:51;;;;;;;4.40;1.10;;;;;;;7.48;71.34;98599.44;5003776;28;20087;-78
2022/01/05 05:00:18;;;;;;;1.58;1.15;;;;;;;7.53;71.28;98578.69;5008976;28;20508;-78
2022/01/05 05:02:45;;;;;;;1.08;1.00;;;;;;;7.44;70.59;98593.63;4981428;28;20046;-78
2022/01/05 05:05:12;;;;;;;2.25;1.08;;;;;;;7.48;70.90;98595.00;5008335;28;20041;-78
2022/01/05 05:07:39;;;;;;;1.88;1.30;;;;;;;7.53;70.37;98605.97;4975955;28;20042;-78
2022/01/05 05:10:05;;;;;;;3.95;1.98;;;;;;;7.51;70.66;98604.47;4992115;28;20826;-78
2022/01/05 05:12:32;;;;;;;1.40;1.30;;;;;;;7.53;71.31;98608.63;4993093;28;20042;-78
2022/01/05 05:15:00;;;;;;;1.30;1.10;;;;;;;7.50;70.64;98603.59;4982805;28;20053;-78
2022/01/05 05:17:27;;;;;;;1.48;1.38;;;;;;;7.51;70.71;98610.56;4992371;28;20054;-78
2022/01/05 05:19:53;;;;;;;1.25;1.15;;;;;;;7.49;71.20;98609.88;5012431;28;20509;-78
2022/01/05 05:22:20;;;;;;;1.50;1.40;;;;;;;7.26;70.05;98612.06;4989319;28;20053;-78
2022/01/05 05:24:47;;;;;;;3.05;1.77;;;;;;;7.38;70.10;98623.28;4981104;28;20111;-78
2022/01/05 05:27:14;;;;;;;2.42;1.60;;;;;;;7.22;69.73;98637.06;4961281;28;20066;-78
2022/01/05 05:29:40;;;;;;;2.70;1.88;;;;;;;7.24;69.89;98629.03;5013854;28;20125;-78
2022/01/05 05:32:07;;;;;;;1.70;1.60;;;;;;;7.28;69.48;98651.53;4991908;28;20058;-78
2022/01/05 05:34:34;;;;;;;4.13;1.80;;;;;;;7.15;69.79;98647.41;5011309;28;20068;-78
2022/01/05 05:37:02;;;;;;;2.13;1.67;;;;;;;7.12;69.79;98658.25;4987916;28;20105;-78
2022/01/05 05:39:29;;;;;;;2.42;1.73;;;;;;;7.05;69.46;98656.31;4962294;28;20125;-78
2022/01/05 05:41:56;;;;;;;2.58;1.95;;;;;;;7.09;69.51;98660.31;4976373;28;20042;-78
2022/01/05 05:44:23;;;;;;;3.03;1.70;;;;;;;7.04;69.68;98663.38;5012313;28;20042;-78
2022/01/05 05:46:49;;;;;;;3.50;1.65;;;;;;;7.09;69.20;98674.34;5004299;28;20038;-78
2022/01/05 05:49:16;;;;;;;2.38;1.52;;;;;;;7.11;68.58;98688.25;4963363;28;20053;-78
2022/01/05 05:51:43;;;;;;;2.72;1.55;;;;;;;7.02;68.62;98693.53;4973113;28;20042;-78
2022/01/05 05:54:10;;;;;;;2.47;1.45;;;;;;;6.99;68.33;98692.00;4976726;28;20681;-78
2022/01/05 05:56:36;;;;;;;5.10;1.60;;;;;;;6.95;68.28;98712.56;4983618;28;20046;-77
2022/01/05 05:59:03;;;;;;;2.55;1.50;;;;;;;6.96;68.44;98711.59;5005310;28;20104;-79
2022/01/05 06:01:32;;;;;;;4.20;1.90;;;;;;;6.98;67.62;98719.38;5002775;28;20413;-78
2022/01/05 06:03:59;;;;;;;2.30;1.55;;;;;;;6.88;68.06;98729.09;4973320;28;20070;-77
2022/01/05 06:06:25;;;;;;;5.55;1.95;;;;;;;6.93;67.20;98738.28;4954573;28;20052;-78
2022/01/05 06:08:52;;;;;;;7.82;1.80;;;;;;;6.80;67.36;98747.44;4980459;28;20041;-77
2022/01/05 06:11:19;;;;;;;5.15;1.52;;;;;;;6.87;67.52;98749.41;4991228;28;20045;-78
2022/01/05 06:13:46;;;;;;;5.93;1.63;;;;;;;6.84;67.71;98756.72;4987085;28;20050;-78
2022/01/05 06:16:13;;;;;;;11.43;1.80;;;;;;;6.82;67.35;98763.94;4985488;28;20053;-77
2022/01/05 06:18:40;;;;;;;7.65;2.15;;;;;;;6.88;68.89;98766.88;4981112;28;20081;-78
2022/01/05 06:21:07;;;;;;;7.72;2.03;;;;;;;6.93;69.30;98777.03;4988967;28;20050;-79
2022/01/05 06:23:33;;;;;;;5.80;1.60;;;;;;;6.98;68.65;98777.44;4968812;28;20046;-78
2022/01/05 06:26:00;;;;;;;5.18;1.98;;;;;;;6.98;68.80;98782.72;4971144;28;20656;-78
2022/01/05 06:28:27;;;;;;;3.08;1.63;;;;;;;7.00;68.98;98783.44;4987998;28;20054;-80
2022/01/05 06:30:54;;;;;;;6.57;1.60;;;;;;;7.05;69.51;98788.28;4970376;28;20134;-78
2022/01/05 06:33:20;;;;;;;4.13;1.88;;;;;;;7.07;69.84;98796.88;4964966;28;20355;-78
2022/01/05 06:35:47;;;;;;;6.30;1.92;;;;;;;7.07;69.83;98794.25;4985709;28;20045;-77
2022/01/05 06:38:14;;;;;;;4.80;1.85;;;;;;;7.10;69.87;98813.28;4987265;28;20054;-78
2022/01/05 06:40:40;;;;;;;6.25;1.77;;;;;;;7.11;69.88;98808.84;4980647;28;20576;-78
2022/01/05 06:43:07;;;;;;;7.18;1.40;;;;;;;7.11;69.76;98820.22;4975861;28;20039;-77
2022/01/05 06:45:34;;;;;;;6.40;1.67;;;;;;;7.12;69.93;98819.28;4987267;28;20045;-77
2022/01/05 06:48:02;;;;;;;6.03;1.55;;;;;;;7.11;69.83;98820.22;4976143;28;20494;-78
2022/01/05 06:50:29;;;;;;;8.15;1.55;;;;;;;7.12;69.99;98819.28;4983315;28;20034;-77
2022/01/05 06:52:56;;;;;;;6.85;2.30;;;;;;;7.14;70.18;98832.31;4979858;28;20390;-78
2022/01/05 06:55:23;;;;;;;7.85;1.80;;;;;;;7.13;69.68;98836.78;4976234;28;20619;-78
2022/01/05 06:57:51;;;;;;;9.38;1.65;;;;;;;7.12;69.60;98835.13;4992311;28;20045;-77
2022/01/05 07:00:20;;;;;;;5.53;1.70;;;;;;;7.14;69.85;98848.16;5003985;28;20826;-77
2022/01/05 07:02:46;;;;;;;4.95;1.75;;;;;;;7.14;70.26;98854.25;4979605;28;20584;-77
2022/01/05 07:05:13;;;;;;;3.85;1.50;;;;;;;7.13;70.50;98863.16;4973273;28;20042;-77
2022/01/05 07:07:40;;;;;;;5.93;1.48;;;;;;;7.11;69.84;98878.31;5004001;28;20054;-77
2022/01/05 07:10:08;;;;;;;9.55;2.55;;;;;;;7.11;69.71;98885.41;4993559;28;20042;-77
2022/01/05 07:12:36;;;;;;;12.50;2.10;;;;;;;7.11;69.75;98891.50;5000423;28;20655;-78
2022/01/05 07:15:04;;;;;;;5.75;1.75;;;;;;;7.10;69.94;98894.31;5005159;28;20041;-77
2022/01/05 07:17:31;;;;;;;10.27;2.10;;;;;;;7.10;70.16;98895.13;5004590;28;20046;-77
2022/01/05 07:19:58;;;;;;;5.32;2.28;;;;;;;7.10;70.33;98904.84;4975465;28;20043;-78
2022/01/05 07:22:25;;;;;;;6.65;2.35;;;;;;;7.11;70.30;98909.97;4998788;28;20047;-78
2022/01/05 07:24:52;;;;;;;6.50;2.50;;;;;;;7.10;70.34;98907.50;4996601;28;20057;-77
2022/01/05 07:27:18;;;;;;;3.15;2.30;;;;;;;7.08;69.52;98912.06;5005613;28;20493;-78
2022/01/05 07:29:45;;;;;;;7.18;2.35;;;;;;;7.06;69.40;98911.38;4995160;28;20061;-81
2022/01/05 07:32:12;;;;;;;8.23;2.95;;;;;;;7.06;69.49;98921.94;4967324;28;20125;-78
2022/01/05 07:34:39;;;;;;;5.05;2.33;;;;;;;7.06;69.61;98914.00;5008120;28;20049;-78
2022/01/05 07:37:05;;;;;;;7.50;3.25;;;;;;;7.06;69.82;98919.28;4994079;28;20478;-77
2022/01/05 07:39:38;;;;;;;5.68;2.90;;;;;;;7.06;69.95;98924.56;4996708;28;20449;-78
2022/01/05 07:42:06;;;;;;;8.10;2.90;;;;;;;7.04;70.15;98929.16;5002048;28;20656;-78
2022/01/05 07:44:33;;;;;;;6.25;2.80;;;;;;;7.02;69.88;98931.06;5003940;28;20053;-77
2022/01/05 07:47:00;;;;;;;5.85;2.40;;;;;;;7.02;70.09;98942.50;5016224;28;20100;-77
2022/01/05 07:49:27;;;;;;;8.05;2.55;;;;;;;7.03;69.58;98956.53;5011425;28;20046;-77
2022/01/05 07:51:53;;;;;;;8.00;3.20;;;;;;;7.01;69.63;98974.28;4992224;28;20045;-78
2022/01/05 07:54:20;;;;;;;8.45;2.70;;;;;;;6.98;67.86;98977.22;4997088;28;20417;-78
2022/01/05 07:56:47;;;;;;;10.05;2.97;;;;;;;6.94;68.69;98985.38;5003916;28;20045;-78
2022/01/05 07:59:13;;;;;;;5.38;2.22;;;;;;;6.94;68.94;98989.81;5000501;28;20049;-77
2022/01/05 08:01:40;;;;;;;6.88;2.97;;;;;;;6.93;69.03;98991.63;4989884;28;20057;-78
2022/01/05 08:04:07;;;;;;;6.80;2.60;;;;;;;6.94;68.91;99000.38;5005692;28;20042;-77
2022/01/05 08:06:34;;;;;;;12.82;2.80;;;;;;;6.93;68.90;99006.63;5001989;28;20060;-77
2022/01/05 08:09:01;;;;;;;12.23;2.88;;;;;;;6.94;69.10;99005.66;5005749;28;20395;-77
2022/01/05 08:11:33;;;;;;;2.95;1.73;;;;;;;6.93;69.32;99011.91;5015425;28;20096;-77
2022/01/05 08:14:00;;;;;;;10.82;2.35;;;;;;;6.94;69.43;99018.84;5006971;28;20042;-77
2022/01/05 08:16:27;;;;;;;10.55;2.70;;;;;;;6.93;69.22;99030.38;4983524;28;20115;-77
2022/01/05 08:18:54;;;;;;;9.73;2.60;;;;;;;6.91;68.63;99027.88;4989879;28;20081;-77
2022/01/05 08:21:22;;;;;;;4.72;2.10;;;;;;;6.90;68.93;99028.00;5008936;28;20058;-77
2022/01/05 08:23:49;;;;;;;10.48;2.15;;;;;;;6.91;69.20;99048.97;5007627;28;20542;-77
2022/01/05 08:26:16;;;;;;;5.28;2.25;;;;;;;6.91;69.32;99048.16;4982782;28;20072;-77
2022/01/05 08:28:43;;;;;;;7.47;2.10;;;;;;;6.89;69.24;99056.19;5001498;28;20358;-79
2022/01/05 08:31:12;;;;;;;10.50;2.45;;;;;;;6.87;69.34;99054.66;4954291;28;20045;-78
2022/01/05 08:33:39;;;;;;;5.05;2.17;;;;;;;6.87;69.49;99063.44;5007593;28;20106;-78
2022/01/05 08:36:05;;;;;;;6.90;2.78;;;;;;;6.84;68.26;99058.38;4976232;28;20047;-77
2022/01/05 08:38:33;;;;;;;6.72;2.88;;;;;;;6.79;68.07;99070.31;5007199;28;20038;-77
2022/01/05 08:41:00;;;;;;;6.13;2.47;;;;;;;6.81;68.53;99074.47;5005407;28;20046;-77
2022/01/05 08:43:26;;;;;;;7.32;2.13;;;;;;;6.83;68.11;99077.00;5008916;28;20506;-78
2022/01/05 08:45:53;;;;;;;9.05;2.33;;;;;;;6.84;67.95;99076.03;4991990;28;20508;-77
2022/01/05 08:48:20;;;;;;;7.10;1.67;;;;;;;6.82;65.18;99083.22;4983474;28;20057;-77
2022/01/05 08:50:47;;;;;;;8.43;2.40;;;;;;;6.80;64.53;99082.53;5002634;28;20180;-81
2022/01/05 08:53:13;;;;;;;15.40;2.70;;;;;;;6.77;64.95;99077.50;4985093;28;20058;-78
2022/01/05 08:55:43;;;;;;;8.63;2.53;;;;;;;6.74;65.94;99082.09;4986455;28;20061;-78
2022/01/05 08:58:10;;;;;;;10.98;2.65;;;;;;;6.77;66.50;99080.16;4991493;28;20054;-77
2022/01/05 09:00:37;;;;;;;7.95;2.08;;;;;;;6.78;66.46;99089.75;4995447;28;22065;-77
2022/01/05 09:03:05;;;;;;;5.65;2.03;;;;;;;6.70;65.27;99098.31;4986903;28;20540;-78
2022/01/05 09:05:33;;;;;;;12.30;3.85;;;;;;;6.77;66.93;99102.13;5002398;28;20413;-77
2022/01/05 09:08:00;;;;;;;7.97;2.25;;;;;;;6.78;66.73;99109.06;4980926;28;20053;-77
2022/01/05 09:10:28;;;;;;;6.15;2.00;;;;;;;6.79;66.69;99113.34;4995060;28;20533;-77
2022/01/05 09:12:56;;;;;;;10.98;2.13;;;;;;;6.80;66.83;99119.50;5002047;28;20039;-78
2022/01/05 09:15:24;;;;;;;7.00;2.28;;;;;;;6.81;66.85;99121.16;5006259;28;20052;-80
2022/01/05 09:17:52;;;;;;;10.68;2.90;;;;;;;6.84;67.08;99112.97;4949628;28;20507;-83
2022/01/05 09:20:20;;;;;;;5.53;2.13;;;;;;;6.82;66.87;99109.63;4982821;28;20422;-84
2022/01/05 09:22:47;;;;;;;12.75;2.90;;;;;;;6.86;66.60;99116.31;4960899;28;20402;-84
2022/01/05 09:25:16;;;;;;;14.20;1.92;;;;;;;6.90;66.22;99126.50;5008075;28;20048;-85
2022/01/05 09:27:44;;;;;;;12.27;3.00;;;;;;;6.87;66.02;99121.47;4969265;28;20045;-84
2022/01/05 09:30:16;;;;;;;9.02;2.30;;;;;;;6.80;65.44;99117.69;4956629;28;20060;-84
2022/01/05 09:32:43;;;;;;;12.73;2.07;;;;;;;6.72;64.68;99131.53;4999904;28;20490;-85
2022/01/05 09:35:14;;;;;;;11.95;2.67;;;;;;;6.76;65.11;99142.63;4990195;28;20045;-84
2022/01/05 09:37:54;;;;;;;6.28;2.00;;;;;;;6.79;65.77;99146.81;4995677;28;20064;-83
2022/01/05 09:43:09;;;;;;;19.00;3.88;;;;;;;6.78;65.30;99153.91;4959589;28;20056;-82
2022/01/05 09:45:38;;;;;;;20.10;4.15;;;;;;;6.68;64.18;99151.19;5016312;28;20525;-82
2022/01/05 09:48:28;;;;;;;10.05;2.47;;;;;;;6.65;64.96;99156.72;4985694;28;20087;-82
2022/01/05 09:50:58;;;;;;;15.10;2.67;;;;;;;6.69;64.32;99163.44;4958611;28;20069;-81
2022/01/05 09:53:26;;;;;;;14.30;2.22;;;;;;;6.68;64.63;99153.84;4977669;28;20057;-80
2022/01/05 09:56:12;;;;;;;12.88;2.28;;;;;;;6.70;65.37;99173.03;4956673;28;20057;-80
2022/01/05 09:58:42;;;;;;;11.88;2.00;;;;;;;6.76;65.33;99162.91;5000929;28;20095;-80
2022/01/05 10:01:08;;;;;;;12.10;3.08;;;;;;;6.80;65.21;99167.81;4966212;28;20121;-80
2022/01/05 10:03:35;;;;;;;5.45;2.15;;;;;;;6.84;65.63;99169.22;4984220;28;20061;-79
2022/01/05 10:06:02;;;;;;;11.85;2.47;;;;;;;6.87;65.50;99174.25;4987578;28;20050;-80
2022/01/05 10:08:29;;;;;;;13.05;3.33;;;;;;;6.90;65.46;99178.44;4995501;28;20405;-80
2022/01/05 10:10:56;;;;;;;13.93;2.30;;;;;;;6.92;65.49;99172.06;4989967;28;20049;-80
2022/01/05 10:13:23;;;;;;;12.50;2.42;;;;;;;6.94;65.44;99185.94;4980568;28;20046;-80
2022/01/05 10:15:51;;;;;;;11.38;2.38;;;;;;;6.95;65.59;99176.25;4987410;28;20065;-80
2022/01/05 10:18:19;;;;;;;9.40;2.28;;;;;;;6.92;65.79;99189.69;4967558;28;20148;-80
2022/01/05 10:20:58;;;;;;;19.42;2.83;;;;;;;6.84;65.04;99197.41;4986229;28;20534;-80
2022/01/05 10:23:52;;;;;;;11.77;2.95;;;;;;;6.79;65.58;99189.03;4961766;28;20057;-80
2022/01/05 10:26:28;;;;;;;14.75;2.40;;;;;;;6.80;64.81;99196.84;4979074;28;20105;-80
2022/01/05 10:29:00;;;;;;;12.13;2.13;;;;;;;6.79;63.68;99199.59;4951571;28;20051;-80
2022/01/05 10:31:33;;;;;;;17.08;3.58;;;;;;;6.80;64.23;99196.00;5003195;28;20050;-80
2022/01/05 10:34:25;;;;;;;16.57;3.83;;;;;;;6.70;64.71;99201.22;4972821;28;20057;-83
2022/01/05 10:37:04;;;;;;;18.88;3.42;;;;;;;6.74;63.61;99207.88;4955939;28;20056;-83
2022/01/05 10:39:35;;;;;;;13.45;2.85;;;;;;;6.77;63.99;99199.75;4974122;28;20065;-81
2022/01/05 10:42:08;;;;;;;17.08;2.72;;;;;;;6.71;64.56;99201.06;4969159;28;20042;-81
2022/01/05 10:44:36;;;;;;;10.90;2.50;;;;;;;6.76;65.20;99197.22;4969917;28;20049;-82
2022/01/05 10:47:05;;;;;;;9.20;2.53;;;;;;;6.78;64.58;99213.78;4968242;28;20124;-82
2022/01/05 10:49:36;;;;;;;16.60;2.83;;;;;;;6.63;61.88;99210.59;4994081;28;22232;-86
2022/01/05 10:52:26;;;;;;;25.02;3.17;;;;;;;6.55;63.03;99213.84;4981155;28;20046;-83
2022/01/05 10:54:55;;;;;;;14.52;3.00;;;;;;;6.64;63.58;99215.75;4954071;28;20534;-82
2022/01/05 10:57:22;;;;;;;15.30;3.47;;;;;;;6.65;63.76;99222.69;4967448;28;20046;-80
2022/01/05 10:59:53;;;;;;;17.23;4.00;;;;;;;6.65;63.55;99219.22;4993847;28;20046;-80
2022/01/05 11:02:30;;;;;;;15.55;3.10;;;;;;;6.57;63.21;99233.03;4989160;28;20065;-82
2022/01/05 11:05:09;;;;;;;9.15;2.00;;;;;;;6.54;62.28;99228.03;4968596;28;20397;-82
2022/01/05 11:07:40;;;;;;;12.82;3.70;;;;;;;6.44;61.96;99227.91;4976563;28;20061;-81
2022/01/05 11:10:09;;;;;;;16.70;3.92;;;;;;;6.47;62.64;99240.03;4951681;28;20096;-81
2022/01/05 11:12:41;;;;;;;12.30;3.42;;;;;;;6.40;62.42;99230.94;4969333;28;20356;-81
2022/01/05 11:15:30;;;;;;;17.85;3.42;;;;;;;6.36;62.14;99243.53;5005111;28;20417;-81
2022/01/05 11:18:16;;;;;;;12.35;4.28;;;;;;;6.37;63.30;99239.09;4937447;28;20058;-84
2022/01/05 11:20:55;;;;;;;12.75;2.90;;;;;;;6.44;63.67;99235.84;4963155;28;20049;-85
2022/01/05 11:23:26;;;;;;;14.73;3.65;;;;;;;6.49;64.13;99241.56;4963225;28;20042;-85
2022/01/05 11:25:54;;;;;;;14.43;2.88;;;;;;;6.54;64.37;99246.47;4970528;28;20046;-84
2022/01/05 11:28:23;;;;;;;11.63;3.30;;;;;;;6.57;64.43;99251.50;4992884;28;20048;-84
2022/01/05 11:30:52;;;;;;;12.23;3.00;;;;;;;6.59;65.05;99254.84;4969339;28;20052;-85
2022/01/05 11:33:20;;;;;;;18.20;3.13;;;;;;;6.58;64.16;99257.59;4959247;28;20129;-85
2022/01/05 11:35:49;;;;;;;16.85;2.63;;;;;;;6.59;64.01;99246.94;4980666;28;20042;-82
2022/01/05 11:38:16;;;;;;;12.82;2.70;;;;;;;6.57;63.66;99261.22;4969022;28;20386;-83
2022/01/05 11:40:51;;;;;;;12.73;2.83;;;;;;;6.49;62.87;99248.66;4967771;28;20045;-84
2022/01/05 11:43:32;;;;;;;14.80;3.22;;;;;;;6.50;64.25;99248.50;5010375;28;20035;-83
2022/01/05 11:46:16;;;;;;;14.63;3.03;;;;;;;6.45;64.43;99257.75;4953798;28;20104;-81